createdAt,value
2022-11-08T00:02:22.926Z,10.40
2022-11-08T00:04:49.950Z,10.50
2022-11-08T00:07:23.761Z,10.40
2022-11-08T00:09:50.821Z,10.50
2022-11-08T00:12:24.778Z,10.50
2022-11-08T00:14:52.152Z,10.60
2022-11-08T00:17:26.770Z,10.70
2022-11-08T00:19:53.758Z,10.70
2022-11-08T00:22:27.726Z,10.70
2022-11-08T00:24:54.677Z,10.70
2022-11-08T00:27:23.763Z,10.70
2022-11-08T00:29:57.737Z,10.70
2022-11-08T00:32:25.532Z,10.80
2022-11-08T00:34:58.931Z,10.80
2022-11-08T00:37:25.966Z,10.80
2022-11-08T00:39:59.829Z,10.70
2022-11-08T00:42:26.854Z,10.60
2022-11-08T00:45:00.798Z,10.60
2022-11-08T00:47:27.734Z,10.60
2022-11-08T00:49:55.163Z,10.70
2022-11-08T00:52:28.770Z,10.70
2022-11-08T00:55:02.925Z,10.60
2022-11-08T00:57:47.250Z,10.60
2022-11-08T01:00:23.772Z,10.60
2022-11-08T01:02:56.754Z,10.50
2022-11-08T01:05:29.774Z,10.50
2022-11-08T01:08:02.789Z,10.40
2022-11-08T01:10:29.890Z,10.50
2022-11-08T01:13:03.847Z,10.60
2022-11-08T01:15:35.696Z,10.70
2022-11-08T01:18:10.827Z,10.50
2022-11-08T01:20:44.828Z,10.40
2022-11-08T01:23:18.862Z,10.40
2022-11-08T01:25:47.454Z,10.40
2022-11-08T01:28:14.760Z,10.30
2022-11-08T01:30:49.880Z,10.20
2022-11-08T01:33:16.946Z,10.20
2022-11-08T01:35:44.879Z,10.30
2022-11-08T01:38:19.136Z,10.40
2022-11-08T01:40:47.581Z,10.40
2022-11-08T01:43:35.844Z,10.40
2022-11-08T01:46:52.841Z,10.50
2022-11-08T01:49:35.811Z,10.40
2022-11-08T01:52:41.799Z,10.30
2022-11-08T01:55:18.976Z,10.30
2022-11-08T01:58:08.827Z,10.30
2022-11-08T02:00:37.524Z,10.00
2022-11-08T02:03:11.800Z,9.80
2022-11-08T02:05:38.759Z,9.70
2022-11-08T02:08:31.791Z,9.70
2022-11-08T02:10:58.764Z,9.70
2022-11-08T02:13:34.886Z,9.60
2022-11-08T02:16:02.994Z,9.70
2022-11-08T02:18:37.817Z,9.70
2022-11-08T02:21:12.222Z,9.70
2022-11-08T02:24:01.850Z,9.80
2022-11-08T02:26:33.013Z,9.70
2022-11-08T02:29:06.834Z,9.80
2022-11-08T02:31:33.764Z,9.60
2022-11-08T02:34:06.786Z,9.50
2022-11-08T02:36:33.722Z,9.60
2022-11-08T02:39:06.828Z,9.60
2022-11-08T02:41:33.765Z,9.70
2022-11-08T02:44:06.821Z,9.80
2022-11-08T02:46:33.754Z,10.00
2022-11-08T02:49:06.884Z,9.90
2022-11-08T02:51:33.887Z,9.90
2022-11-08T02:54:00.829Z,9.90
2022-11-08T02:56:33.833Z,9.70
2022-11-08T02:59:00.830Z,9.60
2022-11-08T03:01:33.950Z,9.60
2022-11-08T03:04:01.035Z,9.60
2022-11-08T03:06:34.832Z,9.70
2022-11-08T03:09:01.861Z,9.70
2022-11-08T03:11:35.868Z,9.60
2022-11-08T03:14:02.873Z,9.40
2022-11-08T03:16:36.853Z,9.30
2022-11-08T03:19:03.848Z,9.30
2022-11-08T03:21:36.934Z,9.20
2022-11-08T03:24:11.850Z,9.10
2022-11-08T03:26:38.720Z,9.10
2022-11-08T03:29:11.944Z,9.00
2022-11-08T03:31:45.835Z,9.10
2022-11-08T03:34:12.861Z,9.10
2022-11-08T03:36:39.873Z,9.10
2022-11-08T03:39:12.855Z,9.10
2022-11-08T03:41:39.775Z,9.10
2022-11-08T03:44:12.856Z,9.10
2022-11-08T03:46:39.775Z,9.20
2022-11-08T03:49:12.867Z,9.30
2022-11-08T03:51:40.085Z,9.40
2022-11-08T03:54:07.026Z,9.60
2022-11-08T03:56:40.885Z,9.70
2022-11-08T03:59:07.842Z,9.90
2022-11-08T04:01:40.959Z,10.00
2022-11-08T04:04:08.055Z,9.70
2022-11-08T04:06:41.893Z,9.60
2022-11-08T04:09:20.468Z,9.70
2022-11-08T04:11:54.851Z,9.60
2022-11-08T04:14:21.830Z,9.50
2022-11-08T04:16:54.888Z,9.40
2022-11-08T04:19:22.109Z,9.40
2022-11-08T04:21:56.927Z,9.50
2022-11-08T04:24:23.915Z,9.50
2022-11-08T04:26:50.921Z,9.50
2022-11-08T04:29:24.873Z,9.40
2022-11-08T04:31:51.817Z,9.40
2022-11-08T04:34:24.885Z,9.40
2022-11-08T04:36:51.908Z,9.30
2022-11-08T04:39:25.890Z,9.30
2022-11-08T04:41:56.433Z,9.30
2022-11-08T04:44:32.889Z,9.30
2022-11-08T04:46:59.844Z,9.30
2022-11-08T04:49:32.870Z,9.30
2022-11-08T04:52:05.866Z,9.20
2022-11-08T04:54:38.887Z,9.30
2022-11-08T04:57:05.855Z,9.50
2022-11-08T04:59:38.897Z,9.40
2022-11-08T05:02:06.022Z,9.30
2022-11-08T05:04:39.885Z,9.40
2022-11-08T05:07:06.836Z,9.40
2022-11-08T05:09:39.926Z,9.50
2022-11-08T05:12:13.751Z,9.60
2022-11-08T05:14:46.953Z,9.80
2022-11-08T05:17:20.943Z,10.00
2022-11-08T05:19:53.879Z,10.20
2022-11-08T05:22:20.872Z,10.20
2022-11-08T05:24:53.915Z,10.10
2022-11-08T05:27:26.898Z,10.00
2022-11-08T05:29:53.856Z,10.00
2022-11-08T05:32:26.931Z,10.00
2022-11-08T05:34:53.892Z,10.00
2022-11-08T05:37:26.916Z,10.00
2022-11-08T05:39:53.891Z,10.10
2022-11-08T05:42:20.787Z,10.10
2022-11-08T05:44:53.935Z,10.20
2022-11-08T05:47:21.071Z,10.20
2022-11-08T05:49:54.940Z,10.30
2022-11-08T05:52:21.836Z,10.30
2022-11-08T05:54:54.896Z,10.30
2022-11-08T05:57:22.533Z,10.50
2022-11-08T05:59:55.894Z,10.60
2022-11-08T06:02:22.940Z,10.60
2022-11-08T06:04:56.916Z,10.70
2022-11-08T06:07:23.910Z,10.80
2022-11-08T06:09:56.908Z,10.70
2022-11-08T06:12:23.796Z,10.70
2022-11-08T06:14:56.925Z,10.80
2022-11-08T06:17:27.675Z,10.90
2022-11-08T06:20:03.912Z,10.90
2022-11-08T06:22:31.642Z,10.90
2022-11-08T06:25:04.906Z,10.80
2022-11-08T06:27:31.834Z,10.80
2022-11-08T06:30:05.004Z,10.90
2022-11-08T06:32:31.920Z,10.80
2022-11-08T06:34:58.828Z,10.60
2022-11-08T06:37:31.920Z,10.50
2022-11-08T06:40:04.944Z,10.50
2022-11-08T06:42:31.938Z,10.60
2022-11-08T06:45:05.029Z,10.60
2022-11-08T06:47:37.925Z,10.60
2022-11-08T06:50:05.781Z,10.60
2022-11-08T06:52:39.183Z,10.70
2022-11-08T06:55:06.432Z,10.70
2022-11-08T06:57:39.934Z,10.70
2022-11-08T07:00:07.728Z,10.80
2022-11-08T07:02:42.636Z,10.90
2022-11-08T07:05:10.759Z,11.00
2022-11-08T07:07:43.964Z,11.10
2022-11-08T07:10:10.935Z,11.10
2022-11-08T07:12:43.978Z,11.20
2022-11-08T07:15:11.190Z,11.40
2022-11-08T07:17:44.990Z,11.30
2022-11-08T07:20:12.420Z,11.20
2022-11-08T07:22:39.395Z,11.30
2022-11-08T07:25:14.335Z,11.50
2022-11-08T07:27:48.010Z,11.50
2022-11-08T07:30:21.949Z,11.50
2022-11-08T07:32:48.832Z,11.60
2022-11-08T07:35:21.977Z,11.50
2022-11-08T07:37:49.049Z,11.50
2022-11-08T07:40:22.937Z,11.70
2022-11-08T07:43:10.470Z,11.70
2022-11-08T07:45:43.034Z,11.70
2022-11-08T07:48:13.215Z,11.70
2022-11-08T07:50:47.953Z,11.70
2022-11-08T07:53:15.139Z,11.70
2022-11-08T07:55:49.050Z,11.70
2022-11-08T07:58:16.307Z,11.80
2022-11-08T08:00:50.986Z,12.00
2022-11-08T08:03:25.133Z,12.10
2022-11-08T08:05:56.595Z,12.30
2022-11-08T08:08:32.995Z,12.30
2022-11-08T08:11:00.379Z,12.40
2022-11-08T08:13:33.982Z,12.70
2022-11-08T08:16:01.135Z,12.90
2022-11-08T08:18:35.949Z,13.20
2022-11-08T08:21:02.849Z,13.20
2022-11-08T08:23:36.017Z,13.40
2022-11-08T08:26:02.874Z,13.50
2022-11-08T08:28:36.056Z,13.50
2022-11-08T08:31:05.139Z,13.40
2022-11-08T08:33:39.300Z,13.30
2022-11-08T08:36:06.899Z,13.30
2022-11-08T08:38:44.592Z,13.40
2022-11-08T08:41:11.873Z,13.30
2022-11-08T08:43:44.992Z,13.20
2022-11-08T08:46:12.059Z,13.00
2022-11-08T08:48:39.031Z,13.10
2022-11-08T08:51:13.274Z,13.20
2022-11-08T08:53:40.380Z,13.30
2022-11-08T08:56:16.049Z,13.20
2022-11-08T08:58:43.328Z,13.10
2022-11-08T09:04:04.975Z,13.10
2022-11-08T09:06:39.111Z,13.30
2022-11-08T09:09:06.097Z,13.30
2022-11-08T09:11:40.089Z,13.40
2022-11-08T09:14:07.081Z,13.40
2022-11-08T09:16:41.052Z,13.50
2022-11-08T09:19:08.140Z,13.60
2022-11-08T09:21:45.196Z,13.80
2022-11-08T09:24:14.736Z,14.00
2022-11-08T09:26:49.317Z,14.30
2022-11-08T09:29:16.497Z,14.30
2022-11-08T09:31:43.507Z,14.30
2022-11-08T09:34:20.523Z,14.30
2022-11-08T09:36:49.168Z,14.20
2022-11-08T09:39:23.094Z,14.30
2022-11-08T09:42:23.024Z,14.40
2022-11-08T09:45:16.100Z,14.60
2022-11-08T09:47:53.116Z,14.90
2022-11-08T09:50:41.087Z,15.00
2022-11-08T09:54:00.082Z,15.20
2022-11-08T09:56:42.332Z,15.40
2022-11-08T09:59:39.841Z,15.70
2022-11-08T10:02:28.003Z,16.00
2022-11-08T10:05:05.091Z,16.00
2022-11-08T10:08:08.006Z,15.90
2022-11-08T10:11:19.058Z,15.70
2022-11-08T10:14:04.020Z,15.70
2022-11-08T10:16:51.009Z,15.80
2022-11-08T10:19:55.065Z,15.80
2022-11-08T10:23:06.077Z,15.90
2022-11-08T10:25:49.347Z,16.10
2022-11-08T10:28:27.100Z,16.50
2022-11-08T10:30:54.626Z,16.70
2022-11-08T10:33:44.097Z,16.80
2022-11-08T10:36:49.026Z,17.10
2022-11-08T10:39:20.290Z,17.20
2022-11-08T10:41:55.161Z,17.30
2022-11-08T10:44:23.389Z,17.50
2022-11-08T10:47:03.141Z,17.70
2022-11-08T10:49:43.045Z,17.80
2022-11-08T10:52:23.063Z,17.90
2022-11-08T10:54:54.156Z,18.10
2022-11-08T10:57:39.073Z,18.20
2022-11-08T11:00:35.509Z,18.00
2022-11-08T11:03:18.081Z,18.10
2022-11-08T11:06:07.061Z,18.10
2022-11-08T11:08:40.042Z,18.10
2022-11-08T11:11:34.101Z,18.20
2022-11-08T11:14:22.555Z,18.20
2022-11-08T11:17:11.116Z,18.40
2022-11-08T11:19:38.035Z,18.40
2022-11-08T11:22:13.399Z,18.40
2022-11-08T11:24:52.752Z,18.40
2022-11-08T11:27:46.073Z,18.50
2022-11-08T11:30:18.814Z,18.30
2022-11-08T11:33:09.085Z,18.20
2022-11-08T11:35:51.315Z,18.10
2022-11-08T11:38:37.131Z,18.20
2022-11-08T11:41:12.595Z,18.10
2022-11-08T11:43:54.095Z,18.00
2022-11-08T11:46:24.643Z,18.10
2022-11-08T11:49:08.080Z,18.10
2022-11-08T11:51:35.047Z,18.20
2022-11-08T11:54:09.081Z,18.30
2022-11-08T11:57:01.669Z,18.40
2022-11-08T12:00:02.070Z,18.40
2022-11-08T12:03:22.121Z,18.60
2022-11-08T12:06:27.142Z,18.50
2022-11-08T12:09:18.183Z,18.30
2022-11-08T12:11:57.029Z,18.30
2022-11-08T12:15:29.203Z,18.40
2022-11-08T12:18:36.599Z,18.50
2022-11-08T12:21:43.260Z,18.40
2022-11-08T12:24:40.138Z,18.50
2022-11-08T12:27:51.126Z,18.30
2022-11-08T12:30:36.971Z,18.30
2022-11-08T12:33:13.138Z,18.40
2022-11-08T12:36:35.636Z,18.40
2022-11-08T12:39:36.183Z,18.50
2022-11-08T12:42:46.321Z,18.40
2022-11-08T12:45:52.614Z,18.50
2022-11-08T12:48:55.187Z,18.70
2022-11-08T12:51:43.011Z,18.60
2022-11-08T12:54:36.197Z,18.50
2022-11-08T12:57:28.336Z,18.40
2022-11-08T13:00:05.967Z,18.50
2022-11-08T13:02:43.152Z,18.70
2022-11-08T13:05:29.392Z,18.60
2022-11-08T13:08:25.178Z,18.50
2022-11-08T13:11:04.188Z,18.40
2022-11-08T13:13:58.198Z,18.40
2022-11-08T13:16:28.036Z,18.30
2022-11-08T13:19:03.149Z,18.30
2022-11-08T13:21:30.053Z,18.30
2022-11-08T13:24:43.753Z,18.30
2022-11-08T13:27:38.210Z,18.40
2022-11-08T13:30:25.005Z,18.40
2022-11-08T13:33:10.169Z,18.30
2022-11-08T13:36:11.212Z,18.20
2022-11-08T13:39:40.095Z,18.30
2022-11-08T13:42:19.497Z,18.40
2022-11-08T13:45:02.736Z,18.40
2022-11-08T13:47:33.594Z,18.40
2022-11-08T13:50:35.670Z,18.30
2022-11-08T13:53:53.701Z,18.30
2022-11-08T13:57:00.685Z,18.10
2022-11-08T13:59:31.736Z,18.10
2022-11-08T14:02:06.674Z,18.10
2022-11-08T14:04:40.084Z,18.00
2022-11-08T14:07:33.224Z,18.00
2022-11-08T14:10:49.456Z,18.10
2022-11-08T14:14:16.270Z,18.10
2022-11-08T14:16:59.278Z,18.10
2022-11-08T14:19:38.723Z,18.10
2022-11-08T14:22:21.172Z,18.10
2022-11-08T14:24:57.761Z,18.00
2022-11-08T14:27:39.691Z,18.00
2022-11-08T14:30:26.074Z,18.00
2022-11-08T14:33:27.767Z,17.90
2022-11-08T14:36:03.094Z,17.90
2022-11-08T14:38:40.708Z,17.80
2022-11-08T14:41:09.580Z,17.80
2022-11-08T14:43:52.563Z,17.80
2022-11-08T14:46:35.573Z,17.70
2022-11-08T14:49:30.687Z,17.60
2022-11-08T14:52:17.101Z,17.70
2022-11-08T14:54:53.715Z,17.50
2022-11-08T14:57:50.625Z,17.50
2022-11-08T15:00:24.166Z,17.50
2022-11-08T15:03:06.690Z,17.40
2022-11-08T15:05:48.773Z,17.40
2022-11-08T15:08:57.647Z,17.40
2022-11-08T15:11:31.364Z,17.40
2022-11-08T15:14:14.716Z,17.40
2022-11-08T15:16:50.388Z,17.40
2022-11-08T15:19:46.695Z,17.30
2022-11-08T15:22:33.193Z,17.30
2022-11-08T15:25:41.669Z,17.20
2022-11-08T15:28:22.414Z,17.10
2022-11-08T15:31:08.734Z,17.00
2022-11-08T15:33:39.110Z,17.00
2022-11-08T15:36:25.824Z,16.90
2022-11-08T15:38:53.661Z,16.90
2022-11-08T15:41:47.698Z,16.90
2022-11-08T15:44:25.245Z,16.70
2022-11-08T15:47:00.706Z,16.70
2022-11-08T15:49:36.742Z,16.60
2022-11-08T15:52:04.869Z,16.50
2022-11-08T15:54:39.926Z,16.40
2022-11-08T15:57:08.162Z,16.40
2022-11-08T15:59:43.040Z,16.30
2022-11-08T16:02:14.758Z,16.20
2022-11-08T16:04:50.161Z,16.10
2022-11-08T16:07:18.649Z,16.00
2022-11-08T16:09:56.068Z,15.90
2022-11-08T16:12:27.076Z,15.70
2022-11-08T16:15:00.367Z,15.60
2022-11-08T16:17:27.516Z,15.50
2022-11-08T16:20:01.592Z,15.30
2022-11-08T16:22:28.604Z,15.30
2022-11-08T16:25:02.396Z,15.10
2022-11-08T16:27:29.470Z,15.00
2022-11-08T16:30:03.325Z,14.80
2022-11-08T16:32:30.964Z,14.70
2022-11-08T16:34:58.419Z,14.70
2022-11-08T16:37:32.489Z,14.60
2022-11-08T16:40:00.228Z,14.50
2022-11-08T16:42:34.345Z,14.40
2022-11-08T16:45:01.741Z,14.20
2022-11-08T16:47:35.380Z,14.10
2022-11-08T16:50:02.538Z,13.80
2022-11-08T16:52:37.862Z,13.60
2022-11-08T16:55:12.713Z,13.50
2022-11-08T16:57:50.300Z,13.30
2022-11-08T17:00:20.549Z,13.20
2022-11-08T17:02:59.745Z,13.10
2022-11-08T17:05:27.308Z,13.10
2022-11-08T17:08:01.669Z,13.10
2022-11-08T17:10:30.526Z,13.00
2022-11-08T17:13:24.191Z,13.10
2022-11-08T17:15:56.307Z,13.00
2022-11-08T17:18:33.174Z,12.90
2022-11-08T17:21:37.908Z,12.70
2022-11-08T17:24:01.886Z,12.60
2022-11-08T17:26:29.861Z,12.40
2022-11-08T17:29:03.865Z,12.30
2022-11-08T17:31:32.155Z,12.10
2022-11-08T17:34:07.740Z,11.90
2022-11-08T17:36:55.056Z,11.80
2022-11-08T17:39:42.050Z,11.60
2022-11-08T17:42:14.459Z,11.50
2022-11-08T17:44:51.167Z,11.50
2022-11-08T17:47:21.499Z,11.40
2022-11-08T17:50:01.182Z,11.30
2022-11-08T17:52:30.302Z,11.30
2022-11-08T17:55:08.479Z,11.30
2022-11-08T17:57:43.439Z,11.20
2022-11-08T18:00:15.228Z,11.20
2022-11-08T18:02:53.958Z,11.20
2022-11-08T18:05:29.162Z,11.10
2022-11-08T18:07:57.257Z,11.10
2022-11-08T18:10:32.659Z,11.00
2022-11-08T18:13:05.058Z,11.00
2022-11-08T18:15:42.189Z,10.90
2022-11-08T18:18:11.958Z,10.80
2022-11-08T18:20:47.514Z,10.80
2022-11-08T18:23:16.097Z,10.80
2022-11-08T18:26:00.401Z,10.70
2022-11-08T18:28:28.322Z,10.60
2022-11-08T18:31:02.905Z,10.50
2022-11-08T18:33:35.291Z,10.50
2022-11-08T18:36:25.589Z,10.50
2022-11-08T18:39:03.579Z,10.50
2022-11-08T18:41:42.504Z,10.50
2022-11-08T18:44:12.512Z,10.30
2022-11-08T18:46:49.252Z,10.20
2022-11-08T18:49:18.460Z,10.20
2022-11-08T18:51:59.118Z,10.10
2022-11-08T18:54:31.410Z,10.10
2022-11-08T18:57:07.326Z,10.00
2022-11-08T18:59:39.970Z,9.90
2022-11-08T19:02:21.099Z,9.90
2022-11-08T19:04:56.964Z,9.80
2022-11-08T19:07:27.117Z,9.80
2022-11-08T19:10:06.256Z,9.70
2022-11-08T19:12:35.699Z,9.70
2022-11-08T19:15:15.292Z,9.70
2022-11-08T19:17:49.822Z,9.70
2022-11-08T19:20:30.350Z,9.60
2022-11-08T19:22:59.025Z,9.50
2022-11-08T19:25:37.377Z,9.50
2022-11-08T19:28:11.583Z,9.40
2022-11-08T19:30:48.332Z,9.40
2022-11-08T19:33:18.817Z,9.40
2022-11-08T19:35:54.255Z,9.40
2022-11-08T19:38:23.997Z,9.30
2022-11-08T19:41:02.337Z,9.30
2022-11-08T19:43:33.601Z,9.30
2022-11-08T19:46:14.375Z,9.30
2022-11-08T19:48:45.604Z,9.30
2022-11-08T19:51:27.866Z,9.30
2022-11-08T19:54:10.691Z,9.50
2022-11-08T19:57:04.304Z,9.40
2022-11-08T19:59:33.904Z,9.30
2022-11-08T20:02:16.900Z,9.10
2022-11-08T20:04:45.163Z,8.90
2022-11-08T20:07:25.861Z,9.00
2022-11-08T20:09:56.167Z,9.00
2022-11-08T20:12:30.950Z,8.90
2022-11-08T20:15:06.325Z,8.90
2022-11-08T20:17:45.435Z,8.80
2022-11-08T20:20:17.502Z,8.80
2022-11-08T20:22:54.366Z,8.80
2022-11-08T20:25:28.345Z,8.70
2022-11-08T20:28:14.435Z,8.70
2022-11-08T20:30:44.177Z,8.70
2022-11-08T20:33:19.336Z,8.70
2022-11-08T20:35:49.854Z,8.80
2022-11-08T20:38:30.885Z,8.70
2022-11-08T20:41:02.427Z,8.70
2022-11-08T20:43:41.233Z,8.60
2022-11-08T20:46:18.725Z,8.50
2022-11-08T20:49:00.257Z,8.50
2022-11-08T20:51:29.129Z,8.60
2022-11-08T20:54:05.404Z,8.60
2022-11-08T20:56:36.688Z,8.60
2022-11-08T20:59:11.913Z,8.60
2022-11-08T21:01:42.410Z,8.60
2022-11-08T21:04:19.990Z,8.70
2022-11-08T21:07:00.609Z,8.80
2022-11-08T21:09:50.540Z,8.80
2022-11-08T21:12:28.762Z,8.60
2022-11-08T21:15:06.170Z,8.40
2022-11-08T21:17:37.714Z,8.20
2022-11-08T21:20:16.176Z,8.00
2022-11-08T21:22:46.032Z,7.90
2022-11-08T21:25:22.344Z,7.90
2022-11-08T21:27:58.233Z,7.90
2022-11-08T21:30:27.369Z,7.80
2022-11-08T21:33:03.378Z,7.80
2022-11-08T21:35:31.832Z,7.80
2022-11-08T21:38:08.507Z,7.70
2022-11-08T21:40:38.229Z,7.70
2022-11-08T21:43:13.954Z,7.70
2022-11-08T21:45:50.330Z,7.70
2022-11-08T21:48:18.928Z,7.70
2022-11-08T21:50:54.345Z,7.60
2022-11-08T21:53:23.732Z,7.60
2022-11-08T21:56:05.100Z,7.60
2022-11-08T21:58:46.134Z,7.60
2022-11-08T22:01:26.998Z,7.50
2022-11-08T22:04:00.598Z,7.60
2022-11-08T22:06:46.450Z,7.60
2022-11-08T22:09:24.168Z,7.60
2022-11-08T22:11:54.586Z,7.70
2022-11-08T22:14:29.458Z,7.60
2022-11-08T22:16:59.495Z,7.70
2022-11-08T22:19:37.445Z,7.80
2022-11-08T22:22:05.491Z,7.90
2022-11-08T22:24:39.966Z,8.00
2022-11-08T22:27:22.144Z,8.10
2022-11-08T22:29:56.960Z,8.10
2022-11-08T22:32:25.948Z,8.00
2022-11-08T22:35:02.063Z,8.00
2022-11-08T22:37:32.822Z,8.00
2022-11-08T22:40:11.679Z,8.10
2022-11-08T22:42:44.343Z,8.10
2022-11-08T22:45:19.164Z,8.10
2022-11-08T22:47:47.721Z,8.20
2022-11-08T22:50:23.952Z,8.30
2022-11-08T22:52:52.263Z,8.40
2022-11-08T22:55:27.164Z,8.40
2022-11-08T22:57:56.771Z,8.50
2022-11-08T23:00:35.188Z,8.50
2022-11-08T23:03:03.626Z,8.20
2022-11-08T23:05:39.023Z,8.10
2022-11-08T23:08:07.307Z,8.00
2022-11-08T23:10:35.613Z,8.10
2022-11-08T23:13:10.105Z,8.20
2022-11-08T23:15:44.914Z,8.10
2022-11-08T23:18:13.085Z,8.00
2022-11-08T23:20:46.714Z,7.80
2022-11-08T23:23:14.524Z,7.70
2022-11-08T23:25:42.248Z,7.60
2022-11-08T23:28:16.865Z,7.60
2022-11-08T23:30:50.901Z,7.60
2022-11-08T23:33:24.699Z,7.50
2022-11-08T23:36:04.451Z,7.50
2022-11-08T23:38:37.623Z,7.50
2022-11-08T23:41:11.621Z,7.50
2022-11-08T23:43:38.791Z,7.50
2022-11-08T23:46:14.562Z,7.60
2022-11-08T23:48:41.594Z,7.70
2022-11-08T23:51:15.558Z,7.80
2022-11-08T23:53:49.592Z,7.50
2022-11-08T23:56:21.360Z,7.40
2022-11-08T23:58:54.622Z,7.40
